createdAt,value
2017-07-23T08:14:53.120Z,20.90
2017-07-23T08:17:19.106Z,20.90
2017-07-23T08:19:45.050Z,21.00
2017-07-23T08:22:11.011Z,21.00
2017-07-23T08:24:36.962Z,21.10
2017-07-23T08:27:02.942Z,21.00
2017-07-23T08:29:28.891Z,21.00
2017-07-23T08:31:55.604Z,21.10
2017-07-23T08:34:21.566Z,21.10
2017-07-23T08:36:48.201Z,21.20
2017-07-23T08:39:14.190Z,21.20
2017-07-23T08:41:40.189Z,21.20
2017-07-23T08:44:06.145Z,21.20
2017-07-23T08:46:32.126Z,21.30
2017-07-23T08:48:58.844Z,21.30
2017-07-23T08:51:24.841Z,21.30
2017-07-23T08:53:50.789Z,21.40
2017-07-23T08:56:16.758Z,21.40
2017-07-23T08:58:42.729Z,21.50
2017-07-23T09:01:08.697Z,21.40
2017-07-23T09:03:34.642Z,21.50
2017-07-23T09:06:01.347Z,21.50
2017-07-23T09:08:27.655Z,21.60
2017-07-23T09:10:53.699Z,21.60
2017-07-23T09:13:19.650Z,21.60
2017-07-23T09:15:45.657Z,21.60
2017-07-23T09:18:11.627Z,21.60
2017-07-23T09:20:37.606Z,21.60
2017-07-23T09:23:04.322Z,21.70
2017-07-23T09:25:31.021Z,21.70
2017-07-23T09:27:57.011Z,21.70
2017-07-23T09:30:23.201Z,21.70
2017-07-23T09:32:50.094Z,21.50
2017-07-23T09:35:16.793Z,21.50
2017-07-23T09:37:42.798Z,21.50
2017-07-23T09:40:08.757Z,21.60
2017-07-23T09:42:34.705Z,21.60
2017-07-23T09:45:00.693Z,21.50
2017-07-23T09:47:26.645Z,21.50
2017-07-23T09:49:52.622Z,21.50
2017-07-23T09:52:18.573Z,21.60
2017-07-23T09:54:44.550Z,21.60
2017-07-23T09:57:10.513Z,21.70
2017-07-23T09:59:36.515Z,21.60
2017-07-23T10:02:03.250Z,21.60
2017-07-23T10:04:29.225Z,21.60
2017-07-23T10:06:55.173Z,21.60
2017-07-23T10:09:21.157Z,21.60
2017-07-23T10:11:47.161Z,21.70
2017-07-23T10:14:13.849Z,21.70
2017-07-23T10:16:39.805Z,21.70
2017-07-23T10:19:05.793Z,21.70
2017-07-23T10:21:31.741Z,21.70
2017-07-23T10:23:57.720Z,21.70
2017-07-23T10:26:23.674Z,21.80
2017-07-23T10:28:49.733Z,21.70
2017-07-23T10:31:16.919Z,21.70
2017-07-23T10:33:42.993Z,21.70
2017-07-23T10:36:09.725Z,21.60
2017-07-23T10:38:36.474Z,21.70
2017-07-23T10:41:02.481Z,21.70
2017-07-23T10:43:28.430Z,21.70
2017-07-23T10:45:54.422Z,21.70
2017-07-23T10:48:20.462Z,21.80
2017-07-23T10:50:46.426Z,21.70
2017-07-23T10:53:12.461Z,21.70
2017-07-23T10:55:38.482Z,21.70
2017-07-23T10:58:04.478Z,21.80
2017-07-23T11:00:30.465Z,21.70
2017-07-23T11:02:56.436Z,21.80
2017-07-23T11:05:22.410Z,21.70
2017-07-23T11:07:48.394Z,21.80
2017-07-23T11:10:14.398Z,21.90
2017-07-23T11:12:40.385Z,21.90
2017-07-23T11:15:06.395Z,21.90
2017-07-23T11:17:32.343Z,22.10
2017-07-23T11:19:58.361Z,22.20
2017-07-23T11:22:24.312Z,22.30
2017-07-23T11:24:50.282Z,22.30
2017-07-23T11:27:16.270Z,22.40
2017-07-23T11:29:42.229Z,22.50
2017-07-23T11:32:08.973Z,22.70
2017-07-23T11:34:34.922Z,22.70
2017-07-23T11:37:00.870Z,22.70
2017-07-23T11:39:27.577Z,22.90
2017-07-23T11:41:53.529Z,22.90
2017-07-23T11:44:19.553Z,23.00
2017-07-23T11:46:45.547Z,23.00
2017-07-23T11:49:11.566Z,23.20
2017-07-23T11:51:37.521Z,23.30
2017-07-23T11:54:03.487Z,23.40
2017-07-23T11:56:29.441Z,23.30
2017-07-23T11:58:55.384Z,23.30
2017-07-23T12:01:21.355Z,23.40
2017-07-23T12:03:47.412Z,23.50
2017-07-23T12:06:13.418Z,23.50
2017-07-23T12:08:39.374Z,23.60
2017-07-23T12:11:05.345Z,23.70
2017-07-23T12:13:31.333Z,23.70
2017-07-23T12:15:57.318Z,23.90
2017-07-23T12:18:23.286Z,23.90
2017-07-23T12:20:49.277Z,23.90
2017-07-23T12:23:15.229Z,24.00
2017-07-23T12:25:41.195Z,24.00
2017-07-23T12:28:07.181Z,24.20
2017-07-23T12:30:33.130Z,24.20
2017-07-23T12:32:59.113Z,24.10
2017-07-23T12:35:25.062Z,23.80
2017-07-23T12:37:51.045Z,24.00
2017-07-23T12:40:17.048Z,24.10
2017-07-23T12:42:42.989Z,24.00
2017-07-23T12:45:08.965Z,23.90
2017-07-23T12:47:34.940Z,24.10
2017-07-23T12:50:01.649Z,24.40
2017-07-23T12:52:28.360Z,24.60
2017-07-23T12:54:54.360Z,24.50
2017-07-23T12:57:20.305Z,24.50
2017-07-23T13:02:14.750Z,26.00
2017-07-23T13:04:40.705Z,26.30
2017-07-23T13:07:06.678Z,26.30
2017-07-23T13:09:32.625Z,26.70
2017-07-23T13:11:58.584Z,27.00
2017-07-23T13:19:20.077Z,27.80
2017-07-23T13:21:46.801Z,28.20
2017-07-23T13:24:13.494Z,28.00
2017-07-23T13:26:39.498Z,28.00
2017-07-23T13:29:05.458Z,27.60
2017-07-23T13:31:31.409Z,27.50
2017-07-23T13:33:57.429Z,27.30
2017-07-23T13:36:23.382Z,27.00
2017-07-23T13:38:50.068Z,27.30
2017-07-23T13:41:16.033Z,27.30
2017-07-23T13:43:42.005Z,27.10
2017-07-23T13:46:07.986Z,27.20
2017-07-23T13:48:33.938Z,27.50
2017-07-23T13:50:59.934Z,27.20
2017-07-23T13:53:25.886Z,26.30
2017-07-23T13:55:51.850Z,26.30
2017-07-23T13:58:17.798Z,26.20
2017-07-23T14:00:43.761Z,26.20
2017-07-23T14:03:09.737Z,26.10
2017-07-23T14:05:35.735Z,25.90
2017-07-23T14:08:01.705Z,25.80
2017-07-23T14:10:28.389Z,25.40
2017-07-23T14:12:54.378Z,25.40
2017-07-23T14:15:20.350Z,25.50
2017-07-23T14:17:46.365Z,26.00
2017-07-23T14:20:12.316Z,26.50
2017-07-23T14:22:38.293Z,26.50
2017-07-23T14:25:04.283Z,27.00
2017-07-23T14:27:30.277Z,27.20
2017-07-23T14:29:57.017Z,28.00
2017-07-23T14:32:22.969Z,28.40
2017-07-23T14:34:48.934Z,28.30
2017-07-23T14:37:14.886Z,27.50
2017-07-23T14:39:40.931Z,27.50
2017-07-23T14:42:06.909Z,27.30
2017-07-23T14:44:32.865Z,27.00
2017-07-23T14:46:58.847Z,26.70
2017-07-23T14:49:24.797Z,26.70
2017-07-23T14:51:50.794Z,26.50
2017-07-23T14:54:16.756Z,26.40
2017-07-23T14:56:42.718Z,26.70
2017-07-23T14:59:08.690Z,27.20
2017-07-23T15:01:34.681Z,27.80
2017-07-23T15:04:00.622Z,28.00
2017-07-23T15:06:26.582Z,28.00
2017-07-23T15:08:52.538Z,28.60
2017-07-23T15:11:18.516Z,28.50
2017-07-23T15:13:44.470Z,28.40
2017-07-23T15:16:10.502Z,27.70
2017-07-23T15:18:37.214Z,27.40
2017-07-23T15:21:03.197Z,27.40
2017-07-23T15:23:29.231Z,27.90
2017-07-23T15:25:55.189Z,28.00
2017-07-23T15:28:21.135Z,27.00
2017-07-23T15:30:47.118Z,26.90
2017-07-23T15:33:13.070Z,26.60
2017-07-23T15:35:39.790Z,26.90
2017-07-23T15:38:05.765Z,26.80
2017-07-23T15:40:31.759Z,26.10
2017-07-23T15:42:57.714Z,25.90
2017-07-23T15:45:23.664Z,25.70
2017-07-23T15:47:49.624Z,25.80
2017-07-23T15:50:15.685Z,25.70
2017-07-23T15:52:41.651Z,25.70
2017-07-23T15:55:07.669Z,25.70
2017-07-23T15:57:34.409Z,25.80
2017-07-23T16:00:00.355Z,25.80
2017-07-23T16:02:26.353Z,25.60
2017-07-23T16:04:53.720Z,25.80
2017-07-23T16:07:19.710Z,25.90
2017-07-23T16:09:45.678Z,25.40
2017-07-23T16:12:11.698Z,25.20
2017-07-23T16:14:37.666Z,25.30
2017-07-23T16:17:04.361Z,25.40
2017-07-23T16:19:30.373Z,25.40
2017-07-23T16:21:56.325Z,25.50
2017-07-23T16:24:22.278Z,25.60
2017-07-23T16:26:48.254Z,25.40
2017-07-23T16:29:14.218Z,25.40
2017-07-23T16:31:40.209Z,25.20
2017-07-23T16:34:06.173Z,25.00
2017-07-23T16:36:32.133Z,24.90
2017-07-23T16:38:58.094Z,25.10
2017-07-23T16:41:24.046Z,25.10
2017-07-23T16:43:50.037Z,25.00
2017-07-23T16:46:15.989Z,25.00
2017-07-23T16:48:42.696Z,25.30
2017-07-23T16:51:08.657Z,25.30
2017-07-23T16:53:34.630Z,25.00
2017-07-23T16:56:01.385Z,25.00
2017-07-23T16:58:27.365Z,25.00
2017-07-23T17:00:53.361Z,25.00
2017-07-23T17:03:19.358Z,24.90
2017-07-23T17:05:45.318Z,24.80
2017-07-23T17:08:11.281Z,24.80
2017-07-23T17:10:37.276Z,24.60
2017-07-23T17:13:03.322Z,24.50
2017-07-23T17:15:30.158Z,24.40
2017-07-23T17:17:56.917Z,24.50
2017-07-23T17:20:22.873Z,24.40
2017-07-23T17:22:48.857Z,24.50
2017-07-23T17:25:14.810Z,24.40
2017-07-23T17:27:40.812Z,24.40
2017-07-23T17:30:06.796Z,24.50
2017-07-23T17:32:32.780Z,24.40
2017-07-23T17:34:58.770Z,24.40
2017-07-23T17:37:24.734Z,24.20
2017-07-23T17:39:50.682Z,24.40
2017-07-23T17:42:16.672Z,24.30
2017-07-23T17:44:42.634Z,24.10
2017-07-23T17:47:08.593Z,24.00
2017-07-23T17:49:34.578Z,23.80
2017-07-23T17:52:01.326Z,23.50
2017-07-23T17:54:27.321Z,23.50
2017-07-23T17:56:53.275Z,23.40
2017-07-23T17:59:19.262Z,23.40
2017-07-23T18:01:45.218Z,23.40
2017-07-23T18:04:11.198Z,23.30
2017-07-23T18:06:37.186Z,23.40
2017-07-23T18:09:03.182Z,23.30
2017-07-23T18:11:29.141Z,23.20
2017-07-23T18:13:55.110Z,23.30
2017-07-23T18:16:21.085Z,23.30
2017-07-23T18:18:47.064Z,23.30
2017-07-23T18:21:13.039Z,23.40
2017-07-23T18:23:38.990Z,23.50
2017-07-23T18:26:04.993Z,23.60
2017-07-23T18:28:30.997Z,23.50
2017-07-23T18:30:56.974Z,23.50
2017-07-23T18:33:22.951Z,23.40
2017-07-23T18:35:48.897Z,23.30
2017-07-23T18:38:14.895Z,23.30
2017-07-23T18:40:40.865Z,23.30
2017-07-23T18:43:06.843Z,23.40
2017-07-23T18:45:32.865Z,23.30
2017-07-23T18:47:58.834Z,23.20
2017-07-23T18:50:24.830Z,23.00
2017-07-23T18:52:50.814Z,23.10
2017-07-23T18:55:16.814Z,23.10
2017-07-23T18:57:42.829Z,23.10
2017-07-23T19:00:08.854Z,23.10
2017-07-23T19:02:35.593Z,23.00
2017-07-23T19:05:01.602Z,23.00
2017-07-23T19:07:27.578Z,22.90
2017-07-23T19:09:53.552Z,22.90
2017-07-23T19:12:19.509Z,23.00
2017-07-23T19:14:46.233Z,22.90
2017-07-23T19:17:12.190Z,22.90
2017-07-23T19:19:38.138Z,22.90
2017-07-23T19:22:04.138Z,22.90
2017-07-23T19:24:30.173Z,22.90
2017-07-23T19:26:56.897Z,22.80
2017-07-23T19:29:23.622Z,22.80
2017-07-23T19:31:50.318Z,22.70
2017-07-23T19:34:16.343Z,22.70
2017-07-23T19:36:42.293Z,22.40
2017-07-23T19:39:08.347Z,22.20
2017-07-23T19:41:34.325Z,22.20
2017-07-23T19:44:00.330Z,22.20
2017-07-23T19:46:26.307Z,22.10
2017-07-23T19:48:53.008Z,22.00
2017-07-23T19:51:19.023Z,22.00
2017-07-23T19:53:44.973Z,22.10
2017-07-23T19:56:10.933Z,22.20
2017-07-23T19:58:36.926Z,22.20
2017-07-23T20:01:02.930Z,22.30
2017-07-23T20:03:28.941Z,22.20
2017-07-23T20:05:54.894Z,22.20
2017-07-23T20:08:21.591Z,22.10
2017-07-23T20:10:47.577Z,22.10
2017-07-23T20:13:13.553Z,22.10
2017-07-23T20:15:39.509Z,22.10
2017-07-23T20:18:05.506Z,22.10
2017-07-23T20:20:31.517Z,22.10
2017-07-23T20:22:57.514Z,22.10
2017-07-23T20:25:23.501Z,22.10
2017-07-23T20:27:49.454Z,22.00
2017-07-23T20:30:15.413Z,22.00
2017-07-23T20:32:41.382Z,22.00
2017-07-23T20:35:07.333Z,22.00
2017-07-23T20:37:33.322Z,22.00
2017-07-23T20:40:00.091Z,21.90
2017-07-23T20:42:26.049Z,22.00
2017-07-23T20:44:52.020Z,21.90
2017-07-23T20:47:18.030Z,21.90
2017-07-23T20:49:44.025Z,21.90
2017-07-23T20:52:09.990Z,21.80
2017-07-23T20:54:36.713Z,21.80
2017-07-23T20:57:02.658Z,21.80
2017-07-23T20:59:28.634Z,21.90
2017-07-23T21:01:54.606Z,21.90
2017-07-23T21:04:20.652Z,21.90
2017-07-23T21:06:46.654Z,21.90
2017-07-23T21:09:12.630Z,21.90
2017-07-23T21:11:38.580Z,21.80
2017-07-23T21:14:05.281Z,21.80
2017-07-23T21:16:31.238Z,21.80
2017-07-23T21:18:57.244Z,21.70
2017-07-23T21:21:23.233Z,21.70
2017-07-23T21:23:50.008Z,21.70
2017-07-23T21:26:16.052Z,21.70
2017-07-23T21:28:42.013Z,21.70
2017-07-23T21:31:07.999Z,21.60
2017-07-23T21:33:33.954Z,21.60
2017-07-23T21:35:59.948Z,21.60
2017-07-23T21:38:25.939Z,21.60
2017-07-23T21:40:51.901Z,21.60
2017-07-23T21:43:17.905Z,21.50
2017-07-23T21:45:43.881Z,21.50
2017-07-23T21:48:09.841Z,21.50
2017-07-23T21:50:36.554Z,21.40
2017-07-23T21:53:02.505Z,21.40
2017-07-23T21:55:28.510Z,21.40
2017-07-23T21:57:54.474Z,21.30
2017-07-23T22:00:20.445Z,21.00
2017-07-23T22:02:46.405Z,21.00
2017-07-23T22:05:12.373Z,21.10
2017-07-23T22:07:38.374Z,21.10
2017-07-23T22:10:04.329Z,21.20
2017-07-23T22:12:30.273Z,21.10
2017-07-23T22:14:56.245Z,21.10
2017-07-23T22:17:22.189Z,21.10
2017-07-23T22:19:48.179Z,21.10
2017-07-23T22:22:14.902Z,21.00
2017-07-23T22:24:41.637Z,21.00
2017-07-23T22:27:07.613Z,20.90
2017-07-23T22:29:33.570Z,20.90
2017-07-23T22:31:59.546Z,20.90
2017-07-23T22:34:25.522Z,20.90
2017-07-23T22:36:51.481Z,20.90
2017-07-23T22:39:17.477Z,20.80
2017-07-23T22:41:44.166Z,20.80
2017-07-23T22:44:10.139Z,20.80
2017-07-23T22:46:36.089Z,20.80
2017-07-23T22:49:02.070Z,20.80
2017-07-23T22:51:28.032Z,20.80
2017-07-23T22:53:54.741Z,20.70
2017-07-23T22:56:20.690Z,20.70
2017-07-23T22:58:46.717Z,20.70
2017-07-23T23:01:12.679Z,20.70
2017-07-23T23:03:39.382Z,20.70
2017-07-23T23:06:05.361Z,20.70
2017-07-23T23:08:31.322Z,20.70
2017-07-23T23:10:58.054Z,20.60
2017-07-23T23:13:24.751Z,20.50
2017-07-23T23:15:50.717Z,20.50
2017-07-23T23:18:16.682Z,20.60
2017-07-23T23:20:42.653Z,20.50
2017-07-23T23:23:08.602Z,20.60
2017-07-23T23:25:35.318Z,20.50
2017-07-23T23:28:01.271Z,20.50
2017-07-23T23:30:27.241Z,20.40
2017-07-23T23:32:53.201Z,20.50
2017-07-23T23:35:19.181Z,20.40
2017-07-23T23:37:45.149Z,20.30
2017-07-23T23:40:11.122Z,20.30
2017-07-23T23:42:37.074Z,20.20
2017-07-23T23:45:03.077Z,20.20
2017-07-23T23:47:29.070Z,20.20
2017-07-23T23:49:55.035Z,20.20
2017-07-23T23:52:21.034Z,20.20
2017-07-23T23:54:47.025Z,20.20
2017-07-23T23:57:13.717Z,20.20
2017-07-23T23:59:39.711Z,20.10
